createdAt,value
2022-11-28T21:11:56.811Z,1011.25
2022-11-28T21:12:42.421Z,1011.26
2022-11-28T21:14:46.465Z,1011.27
2022-11-28T21:15:46.412Z,1011.23
2022-11-28T21:17:51.880Z,1011.30
2022-11-28T21:18:50.866Z,1011.26
2022-11-28T21:19:50.860Z,1011.23
2022-11-28T21:20:50.846Z,1011.22
2022-11-28T21:21:50.830Z,1011.22
2022-11-28T21:22:50.825Z,1011.26
2022-11-28T21:23:50.813Z,1011.24
2022-11-28T21:24:50.809Z,1011.25
2022-11-28T21:25:50.794Z,1011.22
2022-11-28T21:26:54.149Z,1011.22
2022-11-28T21:27:50.783Z,1011.20
2022-11-28T21:28:50.839Z,1011.20
2022-11-28T21:29:50.801Z,1011.19
2022-11-28T21:30:50.766Z,1011.25
2022-11-28T21:31:50.833Z,1011.20
2022-11-28T21:32:50.739Z,1011.22
2022-11-28T21:33:50.727Z,1011.22
2022-11-28T21:34:50.730Z,1011.23
2022-11-28T21:35:50.710Z,1011.17
2022-11-28T21:36:50.706Z,1011.21
2022-11-28T21:37:50.692Z,1011.20
2022-11-28T21:38:50.693Z,1011.20
2022-11-28T21:39:50.695Z,1011.24
2022-11-28T21:40:50.676Z,1011.20
2022-11-28T21:41:50.665Z,1011.21
2022-11-28T21:42:50.766Z,1011.21
2022-11-28T21:43:50.666Z,1011.16
2022-11-28T21:44:50.647Z,1011.12
2022-11-28T21:45:50.688Z,1011.07
2022-11-28T21:46:50.639Z,1011.10
2022-11-28T21:47:50.641Z,1011.11
2022-11-28T21:48:50.625Z,1011.12
2022-11-28T21:49:50.634Z,1011.11
2022-11-28T21:50:50.625Z,1011.08
2022-11-28T21:51:51.284Z,1011.11
2022-11-28T21:52:50.584Z,1011.17
2022-11-28T21:53:50.601Z,1011.22
2022-11-28T21:54:50.596Z,1011.18
2022-11-28T21:55:50.567Z,1011.21
2022-11-28T21:56:50.566Z,1011.23
2022-11-28T21:57:50.556Z,1011.25
2022-11-28T21:58:50.538Z,1011.21
2022-11-28T21:59:50.524Z,1011.19
2022-11-28T22:00:54.090Z,1011.20
2022-11-28T22:01:50.557Z,1011.13
2022-11-28T22:02:50.553Z,1011.21
2022-11-28T22:03:50.510Z,1011.18
2022-11-28T22:04:50.500Z,1011.18
2022-11-28T22:05:50.484Z,1011.14
2022-11-28T22:06:50.462Z,1011.16
2022-11-28T22:07:50.506Z,1011.16
2022-11-28T22:08:50.458Z,1011.19
2022-11-28T22:09:50.445Z,1011.20
2022-11-28T22:10:50.447Z,1011.21
2022-11-28T22:11:50.427Z,1011.23
2022-11-28T22:12:50.423Z,1011.23
2022-11-28T22:13:50.429Z,1011.19
2022-11-28T22:14:50.642Z,1011.23
2022-11-28T22:15:50.418Z,1011.20
2022-11-28T22:16:50.399Z,1011.21
2022-11-28T22:17:50.388Z,1011.24
2022-11-28T22:18:50.390Z,1011.23
2022-11-28T22:19:50.369Z,1011.25
2022-11-28T22:20:53.121Z,1011.25
2022-11-28T22:21:51.819Z,1011.26
2022-11-28T22:22:50.348Z,1011.27
2022-11-28T22:23:50.379Z,1011.23
2022-11-28T22:24:50.544Z,1011.28
2022-11-28T22:25:50.332Z,1011.29
2022-11-28T22:26:50.350Z,1011.25
2022-11-28T22:27:50.322Z,1011.22
2022-11-28T22:28:53.910Z,1011.26
2022-11-28T22:29:50.381Z,1011.26
2022-11-28T22:30:50.294Z,1011.24
2022-11-28T22:31:50.406Z,1011.27
2022-11-28T22:32:50.301Z,1011.26
2022-11-28T22:33:50.292Z,1011.30
2022-11-28T22:34:50.307Z,1011.28
2022-11-28T22:35:50.235Z,1011.28
2022-11-28T22:36:50.249Z,1011.28
2022-11-28T22:37:50.273Z,1011.26
2022-11-28T22:38:50.224Z,1011.24
2022-11-28T22:39:50.218Z,1011.22
2022-11-28T22:40:50.199Z,1011.23
2022-11-28T22:41:50.210Z,1011.21
2022-11-28T22:42:50.210Z,1011.21
2022-11-28T22:43:50.194Z,1011.30
2022-11-28T22:44:50.336Z,1011.22
2022-11-28T22:45:50.324Z,1011.32
2022-11-28T22:46:50.214Z,1011.32
2022-11-28T22:47:50.156Z,1011.28
2022-11-28T22:48:50.174Z,1011.31
2022-11-28T22:49:50.146Z,1011.32
2022-11-28T22:50:50.131Z,1011.26
2022-11-28T22:51:50.138Z,1011.25
2022-11-28T22:52:50.113Z,1011.26
2022-11-28T22:53:50.107Z,1011.28
2022-11-28T22:54:50.116Z,1011.24
2022-11-28T22:55:50.084Z,1011.21
2022-11-28T22:56:50.077Z,1011.26
2022-11-28T22:57:50.080Z,1011.23
2022-11-28T22:58:50.098Z,1011.29
2022-11-28T22:59:50.069Z,1011.27
2022-11-28T23:00:50.090Z,1011.31
2022-11-28T23:01:50.119Z,1011.30
2022-11-28T23:02:50.151Z,1011.30
2022-11-28T23:03:50.038Z,1011.33
2022-11-28T23:04:50.038Z,1011.28
2022-11-28T23:05:50.025Z,1011.29
2022-11-28T23:06:50.058Z,1011.31
2022-11-28T23:07:50.092Z,1011.32
2022-11-28T23:08:49.989Z,1011.33
2022-11-28T23:09:49.988Z,1011.33
2022-11-28T23:10:49.969Z,1011.33
2022-11-28T23:11:50.001Z,1011.30
2022-11-28T23:12:50.004Z,1011.30
2022-11-28T23:13:49.979Z,1011.29
2022-11-28T23:14:49.967Z,1011.27
2022-11-28T23:15:52.913Z,1011.25
2022-11-28T23:16:49.950Z,1011.23
2022-11-28T23:17:49.965Z,1011.30
2022-11-28T23:18:49.966Z,1011.28
2022-11-28T23:19:50.023Z,1011.27
2022-11-28T23:20:49.901Z,1011.26
2022-11-28T23:21:49.934Z,1011.28
2022-11-28T23:22:49.874Z,1011.23
2022-11-28T23:23:49.949Z,1011.23
2022-11-28T23:24:49.952Z,1011.20
2022-11-28T23:25:49.865Z,1011.25
2022-11-28T23:26:50.096Z,1011.19
2022-11-28T23:27:49.847Z,1011.18
2022-11-28T23:28:49.915Z,1011.21
2022-11-28T23:29:49.851Z,1011.25
2022-11-28T23:30:49.836Z,1011.23
2022-11-28T23:31:49.865Z,1011.28
2022-11-28T23:32:49.807Z,1011.24
2022-11-28T23:33:49.810Z,1011.24
2022-11-28T23:34:49.801Z,1011.25
2022-11-28T23:35:49.787Z,1011.28
2022-11-28T23:36:49.773Z,1011.26
2022-11-28T23:37:49.826Z,1011.29
2022-11-28T23:38:49.887Z,1011.24
2022-11-28T23:39:49.758Z,1011.28
2022-11-28T23:40:49.768Z,1011.27
2022-11-28T23:41:49.733Z,1011.25
2022-11-28T23:42:49.723Z,1011.31
2022-11-28T23:43:49.721Z,1011.27
2022-11-28T23:44:49.745Z,1011.27
2022-11-28T23:45:49.802Z,1011.31
2022-11-28T23:46:49.802Z,1011.30
2022-11-28T23:47:49.747Z,1011.27
2022-11-28T23:48:49.702Z,1011.26
2022-11-28T23:49:49.677Z,1011.26
2022-11-28T23:50:49.692Z,1011.27
2022-11-28T23:51:49.670Z,1011.21
2022-11-28T23:52:49.656Z,1011.24
2022-11-28T23:53:49.648Z,1011.27
2022-11-28T23:54:49.664Z,1011.24
2022-11-28T23:55:49.635Z,1011.26
2022-11-28T23:56:49.633Z,1011.23
2022-11-28T23:57:49.609Z,1011.22
2022-11-28T23:58:49.601Z,1011.23
2022-11-28T23:59:49.598Z,1011.24
